sensor_id;sensor_type;location;lat;lon;timestamp;P1;durP1;ratioP1;P2;durP2;ratioP2
59689;SDS011;45557;50.298;18.930;2022-11-20T00:01:14;190.40;;;127.90;;
59689;SDS011;45557;50.298;18.930;2022-11-20T00:06:41;194.70;;;128.70;;
59689;SDS011;45557;50.298;18.930;2022-11-20T00:12:25;196.00;;;133.00;;
59689;SDS011;45557;50.298;18.930;2022-11-20T00:17:56;186.60;;;123.90;;
59689;SDS011;45557;50.298;18.930;2022-11-20T00:23:19;198.10;;;131.30;;
59689;SDS011;45557;50.298;18.930;2022-11-20T00:30:02;176.60;;;115.50;;
59689;SDS011;45557;50.298;18.930;2022-11-20T00:36:43;197.00;;;147.20;;
59689;SDS011;45557;50.298;18.930;2022-11-20T00:42:28;207.60;;;127.50;;
59689;SDS011;45557;50.298;18.930;2022-11-20T00:55:15;188.00;;;120.00;;
59689;SDS011;45557;50.298;18.930;2022-11-20T01:01:39;168.10;;;108.50;;
59689;SDS011;45557;50.298;18.930;2022-11-20T01:07:21;163.50;;;110.30;;
59689;SDS011;45557;50.298;18.930;2022-11-20T01:12:54;160.40;;;106.00;;
59689;SDS011;45557;50.298;18.930;2022-11-20T01:18:44;159.80;;;105.90;;
59689;SDS011;45557;50.298;18.930;2022-11-20T01:24:12;173.40;;;106.30;;
59689;SDS011;45557;50.298;18.930;2022-11-20T01:29:37;170.90;;;130.70;;
59689;SDS011;45557;50.298;18.930;2022-11-20T01:35:00;185.90;;;108.00;;
59689;SDS011;45557;50.298;18.930;2022-11-20T01:40:43;182.90;;;124.50;;
59689;SDS011;45557;50.298;18.930;2022-11-20T01:47:25;158.90;;;97.60;;
59689;SDS011;45557;50.298;18.930;2022-11-20T01:53:32;149.30;;;91.70;;
59689;SDS011;45557;50.298;18.930;2022-11-20T01:58:58;149.20;;;93.00;;
59689;SDS011;45557;50.298;18.930;2022-11-20T02:04:25;148.60;;;92.30;;
59689;SDS011;45557;50.298;18.930;2022-11-20T02:10:12;158.70;;;100.90;;
59689;SDS011;45557;50.298;18.930;2022-11-20T02:15:36;154.20;;;95.20;;
59689;SDS011;45557;50.298;18.930;2022-11-20T02:22:14;147.90;;;94.90;;
59689;SDS011;45557;50.298;18.930;2022-11-20T02:28:06;161.30;;;123.50;;
59689;SDS011;45557;50.298;18.930;2022-11-20T02:33:56;152.50;;;96.80;;
59689;SDS011;45557;50.298;18.930;2022-11-20T02:39:59;152.70;;;100.50;;
59689;SDS011;45557;50.298;18.930;2022-11-20T02:46:16;149.80;;;92.70;;
59689;SDS011;45557;50.298;18.930;2022-11-20T02:52:59;151.20;;;103.50;;
59689;SDS011;45557;50.298;18.930;2022-11-20T02:59:22;136.30;;;94.60;;
59689;SDS011;45557;50.298;18.930;2022-11-20T03:06:05;151.90;;;102.70;;
59689;SDS011;45557;50.298;18.930;2022-11-20T03:12:08;144.40;;;114.50;;
59689;SDS011;45557;50.298;18.930;2022-11-20T03:18:51;141.40;;;99.10;;
59689;SDS011;45557;50.298;18.930;2022-11-20T03:25:14;142.20;;;98.60;;
59689;SDS011;45557;50.298;18.930;2022-11-20T03:31:26;138.20;;;95.70;;
59689;SDS011;45557;50.298;18.930;2022-11-20T03:36:51;138.70;;;95.30;;
59689;SDS011;45557;50.298;18.930;2022-11-20T03:42:41;141.50;;;93.60;;
59689;SDS011;45557;50.298;18.930;2022-11-20T03:48:26;122.70;;;83.90;;
59689;SDS011;45557;50.298;18.930;2022-11-20T03:54:32;134.80;;;89.40;;
59689;SDS011;45557;50.298;18.930;2022-11-20T03:59:54;129.40;;;90.10;;
59689;SDS011;45557;50.298;18.930;2022-11-20T04:06:08;127.80;;;89.00;;
59689;SDS011;45557;50.298;18.930;2022-11-20T04:12:18;123.20;;;86.20;;
59689;SDS011;45557;50.298;18.930;2022-11-20T04:18:28;124.60;;;83.10;;
59689;SDS011;45557;50.298;18.930;2022-11-20T04:25:12;117.10;;;80.10;;
59689;SDS011;45557;50.298;18.930;2022-11-20T04:31:32;124.80;;;85.60;;
59689;SDS011;45557;50.298;18.930;2022-11-20T04:37:31;130.10;;;90.20;;
59689;SDS011;45557;50.298;18.930;2022-11-20T04:44:13;130.50;;;90.90;;
59689;SDS011;45557;50.298;18.930;2022-11-20T04:49:38;121.90;;;86.70;;
59689;SDS011;45557;50.298;18.930;2022-11-20T04:55:03;121.20;;;88.00;;
59689;SDS011;45557;50.298;18.930;2022-11-20T05:00:47;125.90;;;84.90;;
59689;SDS011;45557;50.298;18.930;2022-11-20T05:07:09;124.10;;;88.50;;
59689;SDS011;45557;50.298;18.930;2022-11-20T05:12:54;126.70;;;88.20;;
59689;SDS011;45557;50.298;18.930;2022-11-20T05:18:21;134.80;;;91.50;;
59689;SDS011;45557;50.298;18.930;2022-11-20T05:23:44;135.50;;;97.10;;
59689;SDS011;45557;50.298;18.930;2022-11-20T05:29:16;211.30;;;151.30;;
59689;SDS011;45557;50.298;18.930;2022-11-20T05:40:01;118.90;;;85.40;;
59689;SDS011;45557;50.298;18.930;2022-11-20T05:45:35;120.80;;;86.50;;
59689;SDS011;45557;50.298;18.930;2022-11-20T05:52:17;127.90;;;89.30;;
59689;SDS011;45557;50.298;18.930;2022-11-20T05:58:12;138.10;;;92.90;;
59689;SDS011;45557;50.298;18.930;2022-11-20T06:03:56;396.20;;;228.10;;
59689;SDS011;45557;50.298;18.930;2022-11-20T06:10:15;237.80;;;149.80;;
59689;SDS011;45557;50.298;18.930;2022-11-20T06:16:00;189.60;;;128.40;;
59689;SDS011;45557;50.298;18.930;2022-11-20T06:21:29;165.80;;;110.40;;
59689;SDS011;45557;50.298;18.930;2022-11-20T06:28:12;142.60;;;100.10;;
59689;SDS011;45557;50.298;18.930;2022-11-20T06:34:57;137.50;;;102.50;;
59689;SDS011;45557;50.298;18.930;2022-11-20T06:41:43;145.10;;;95.70;;
59689;SDS011;45557;50.298;18.930;2022-11-20T06:48:28;146.00;;;96.50;;
59689;SDS011;45557;50.298;18.930;2022-11-20T06:55:11;131.00;;;91.60;;
59689;SDS011;45557;50.298;18.930;2022-11-20T07:01:54;137.70;;;97.60;;
59689;SDS011;45557;50.298;18.930;2022-11-20T07:07:45;143.70;;;107.80;;
59689;SDS011;45557;50.298;18.930;2022-11-20T07:13:48;137.40;;;99.80;;
59689;SDS011;45557;50.298;18.930;2022-11-20T07:19:56;129.20;;;91.10;;
59689;SDS011;45557;50.298;18.930;2022-11-20T07:25:19;137.20;;;99.90;;
59689;SDS011;45557;50.298;18.930;2022-11-20T07:31:45;134.50;;;98.80;;
59689;SDS011;45557;50.298;18.930;2022-11-20T07:38:28;153.10;;;110.90;;
59689;SDS011;45557;50.298;18.930;2022-11-20T07:45:11;180.10;;;126.70;;
59689;SDS011;45557;50.298;18.930;2022-11-20T07:51:54;154.40;;;107.90;;
59689;SDS011;45557;50.298;18.930;2022-11-20T07:58:37;296.30;;;188.50;;
59689;SDS011;45557;50.298;18.930;2022-11-20T08:05:20;172.90;;;113.00;;
59689;SDS011;45557;50.298;18.930;2022-11-20T08:12:10;112.00;;;81.30;;
59689;SDS011;45557;50.298;18.930;2022-11-20T08:18:50;105.40;;;71.20;;
59689;SDS011;45557;50.298;18.930;2022-11-20T08:25:34;101.20;;;68.50;;
59689;SDS011;45557;50.298;18.930;2022-11-20T08:31:01;106.90;;;72.20;;
59689;SDS011;45557;50.298;18.930;2022-11-20T08:37:11;112.40;;;69.60;;
59689;SDS011;45557;50.298;18.930;2022-11-20T08:48:01;87.50;;;57.60;;
59689;SDS011;45557;50.298;18.930;2022-11-20T08:53:25;81.10;;;54.40;;
59689;SDS011;45557;50.298;18.930;2022-11-20T08:59:47;75.40;;;52.00;;
59689;SDS011;45557;50.298;18.930;2022-11-20T09:06:29;77.90;;;50.30;;
59689;SDS011;45557;50.298;18.930;2022-11-20T09:13:12;67.90;;;44.70;;
59689;SDS011;45557;50.298;18.930;2022-11-20T09:19:55;69.60;;;45.40;;
59689;SDS011;45557;50.298;18.930;2022-11-20T09:25:38;71.10;;;46.70;;
59689;SDS011;45557;50.298;18.930;2022-11-20T09:31:09;72.40;;;46.10;;
59689;SDS011;45557;50.298;18.930;2022-11-20T09:37:22;69.20;;;47.20;;
59689;SDS011;45557;50.298;18.930;2022-11-20T09:54:57;68.80;;;46.70;;
59689;SDS011;45557;50.298;18.930;2022-11-20T10:00:24;72.00;;;45.40;;
59689;SDS011;45557;50.298;18.930;2022-11-20T10:06:12;71.10;;;44.50;;
59689;SDS011;45557;50.298;18.930;2022-11-20T10:26:43;67.20;;;43.30;;
59689;SDS011;45557;50.298;18.930;2022-11-20T10:32:46;64.20;;;43.50;;
59689;SDS011;45557;50.298;18.930;2022-11-20T10:38:52;58.60;;;39.70;;
59689;SDS011;45557;50.298;18.930;2022-11-20T10:51:46;66.70;;;43.50;;
59689;SDS011;45557;50.298;18.930;2022-11-20T11:03:32;59.30;;;39.60;;
59689;SDS011;45557;50.298;18.930;2022-11-20T11:08:55;62.60;;;39.90;;
59689;SDS011;45557;50.298;18.930;2022-11-20T11:14:21;58.40;;;39.60;;
59689;SDS011;45557;50.298;18.930;2022-11-20T11:19:56;60.80;;;40.60;;
59689;SDS011;45557;50.298;18.930;2022-11-20T11:26:20;58.30;;;39.00;;
59689;SDS011;45557;50.298;18.930;2022-11-20T11:31:45;61.10;;;40.50;;
59689;SDS011;45557;50.298;18.930;2022-11-20T11:37:18;69.00;;;43.20;;
59689;SDS011;45557;50.298;18.930;2022-11-20T11:43:05;71.30;;;46.90;;
59689;SDS011;45557;50.298;18.930;2022-11-20T11:55:36;75.20;;;53.00;;
59689;SDS011;45557;50.298;18.930;2022-11-20T12:01:47;77.10;;;49.80;;
59689;SDS011;45557;50.298;18.930;2022-11-20T12:07:16;74.50;;;50.00;;
59689;SDS011;45557;50.298;18.930;2022-11-20T12:18:55;73.00;;;48.80;;
59689;SDS011;45557;50.298;18.930;2022-11-20T12:25:38;76.90;;;48.70;;
59689;SDS011;45557;50.298;18.930;2022-11-20T12:39:25;71.50;;;47.90;;
59689;SDS011;45557;50.298;18.930;2022-11-20T13:09:48;63.30;;;44.00;;
59689;SDS011;45557;50.298;18.930;2022-11-20T13:22:47;61.30;;;42.60;;
59689;SDS011;45557;50.298;18.930;2022-11-20T13:29:16;64.20;;;44.40;;
59689;SDS011;45557;50.298;18.930;2022-11-20T13:35:53;64.90;;;45.30;;
59689;SDS011;45557;50.298;18.930;2022-11-20T13:41:33;73.10;;;47.40;;
59689;SDS011;45557;50.298;18.930;2022-11-20T13:47:26;73.40;;;48.50;;
59689;SDS011;45557;50.298;18.930;2022-11-20T13:59:56;74.70;;;51.10;;
59689;SDS011;45557;50.298;18.930;2022-11-20T14:06:03;78.20;;;53.80;;
59689;SDS011;45557;50.298;18.930;2022-11-20T14:11:28;81.80;;;55.80;;
59689;SDS011;45557;50.298;18.930;2022-11-20T14:23:22;84.60;;;57.10;;
59689;SDS011;45557;50.298;18.930;2022-11-20T14:28:51;107.00;;;70.00;;
59689;SDS011;45557;50.298;18.930;2022-11-20T14:34:53;87.10;;;57.90;;
59689;SDS011;45557;50.298;18.930;2022-11-20T14:45:51;90.20;;;58.80;;
59689;SDS011;45557;50.298;18.930;2022-11-20T14:51:33;94.80;;;63.30;;
59689;SDS011;45557;50.298;18.930;2022-11-20T14:57:03;91.40;;;61.90;;
59689;SDS011;45557;50.298;18.930;2022-11-20T15:02:25;90.10;;;61.80;;
59689;SDS011;45557;50.298;18.930;2022-11-20T15:09:14;99.30;;;65.50;;
59689;SDS011;45557;50.298;18.930;2022-11-20T15:16:00;106.70;;;70.70;;
59689;SDS011;45557;50.298;18.930;2022-11-20T15:22:24;106.30;;;68.40;;
59689;SDS011;45557;50.298;18.930;2022-11-20T15:29:11;102.30;;;69.40;;
59689;SDS011;45557;50.298;18.930;2022-11-20T15:35:58;104.10;;;69.40;;
59689;SDS011;45557;50.298;18.930;2022-11-20T15:41:50;110.30;;;73.70;;
59689;SDS011;45557;50.298;18.930;2022-11-20T15:47:20;104.30;;;68.90;;
59689;SDS011;45557;50.298;18.930;2022-11-20T15:54:10;107.90;;;70.30;;
59689;SDS011;45557;50.298;18.930;2022-11-20T16:00:57;99.10;;;63.00;;
59689;SDS011;45557;50.298;18.930;2022-11-20T16:07:05;96.00;;;61.80;;
59689;SDS011;45557;50.298;18.930;2022-11-20T16:13:02;88.50;;;57.20;;
59689;SDS011;45557;50.298;18.930;2022-11-20T16:19:26;83.80;;;53.20;;
59689;SDS011;45557;50.298;18.930;2022-11-20T16:26:17;72.90;;;47.90;;
59689;SDS011;45557;50.298;18.930;2022-11-20T16:33:00;70.60;;;42.80;;
59689;SDS011;45557;50.298;18.930;2022-11-20T16:40:14;63.10;;;39.20;;
59689;SDS011;45557;50.298;18.930;2022-11-20T16:47:02;63.70;;;38.60;;
59689;SDS011;45557;50.298;18.930;2022-11-20T17:00:42;60.90;;;38.40;;
59689;SDS011;45557;50.298;18.930;2022-11-20T17:06:55;58.00;;;36.20;;
59689;SDS011;45557;50.298;18.930;2022-11-20T17:13:20;56.30;;;35.40;;
59689;SDS011;45557;50.298;18.930;2022-11-20T17:20:12;52.80;;;33.90;;
59689;SDS011;45557;50.298;18.930;2022-11-20T17:27:07;65.90;;;37.40;;
59689;SDS011;45557;50.298;18.930;2022-11-20T17:33:52;65.30;;;38.50;;
59689;SDS011;45557;50.298;18.930;2022-11-20T17:40:48;61.80;;;38.70;;
59689;SDS011;45557;50.298;18.930;2022-11-20T17:47:38;65.90;;;41.20;;
59689;SDS011;45557;50.298;18.930;2022-11-20T17:54:09;63.20;;;39.60;;
59689;SDS011;45557;50.298;18.930;2022-11-20T18:01:25;61.80;;;38.00;;
59689;SDS011;45557;50.298;18.930;2022-11-20T18:08:16;62.70;;;37.30;;
59689;SDS011;45557;50.298;18.930;2022-11-20T18:14:15;67.50;;;41.80;;
59689;SDS011;45557;50.298;18.930;2022-11-20T18:20:52;66.60;;;43.00;;
59689;SDS011;45557;50.298;18.930;2022-11-20T18:27:23;67.70;;;42.30;;
59689;SDS011;45557;50.298;18.930;2022-11-20T18:34:16;68.70;;;41.20;;
59689;SDS011;45557;50.298;18.930;2022-11-20T18:40:59;70.50;;;43.50;;
59689;SDS011;45557;50.298;18.930;2022-11-20T18:47:23;64.50;;;41.00;;
59689;SDS011;45557;50.298;18.930;2022-11-20T19:01:24;67.00;;;42.70;;
59689;SDS011;45557;50.298;18.930;2022-11-20T19:08:15;60.40;;;38.00;;
59689;SDS011;45557;50.298;18.930;2022-11-20T19:15:05;63.10;;;39.50;;
59689;SDS011;45557;50.298;18.930;2022-11-20T19:21:49;69.30;;;39.40;;
59689;SDS011;45557;50.298;18.930;2022-11-20T19:28:38;62.40;;;38.40;;
59689;SDS011;45557;50.298;18.930;2022-11-20T19:35:36;61.20;;;39.50;;
59689;SDS011;45557;50.298;18.930;2022-11-20T19:49:18;60.10;;;36.90;;
59689;SDS011;45557;50.298;18.930;2022-11-20T19:56:01;64.40;;;38.40;;
59689;SDS011;45557;50.298;18.930;2022-11-20T20:02:46;60.50;;;34.90;;
59689;SDS011;45557;50.298;18.930;2022-11-20T20:09:30;59.90;;;36.10;;
59689;SDS011;45557;50.298;18.930;2022-11-20T20:16:14;57.40;;;34.50;;
59689;SDS011;45557;50.298;18.930;2022-11-20T20:22:57;65.40;;;37.90;;
59689;SDS011;45557;50.298;18.930;2022-11-20T20:32:40;65.10;;;39.40;;
59689;SDS011;45557;50.298;18.930;2022-11-20T20:38:52;63.60;;;38.90;;
59689;SDS011;45557;50.298;18.930;2022-11-20T20:45:35;61.70;;;40.00;;
59689;SDS011;45557;50.298;18.930;2022-11-20T20:52:27;70.10;;;43.90;;
59689;SDS011;45557;50.298;18.930;2022-11-20T20:59:09;73.20;;;44.30;;
59689;SDS011;45557;50.298;18.930;2022-11-20T21:05:54;73.70;;;42.70;;
59689;SDS011;45557;50.298;18.930;2022-11-20T21:12:36;73.70;;;41.90;;
59689;SDS011;45557;50.298;18.930;2022-11-20T21:19:19;73.30;;;45.00;;
59689;SDS011;45557;50.298;18.930;2022-11-20T21:26:13;73.00;;;43.30;;
59689;SDS011;45557;50.298;18.930;2022-11-20T21:32:24;65.30;;;40.50;;
59689;SDS011;45557;50.298;18.930;2022-11-20T21:38:59;75.80;;;44.40;;
59689;SDS011;45557;50.298;18.930;2022-11-20T21:45:20;81.90;;;45.70;;
59689;SDS011;45557;50.298;18.930;2022-11-20T21:51:09;64.50;;;38.60;;
59689;SDS011;45557;50.298;18.930;2022-11-20T21:56:49;63.70;;;38.70;;
59689;SDS011;45557;50.298;18.930;2022-11-20T22:02:57;59.60;;;37.10;;
59689;SDS011;45557;50.298;18.930;2022-11-20T22:08:28;54.50;;;35.20;;
59689;SDS011;45557;50.298;18.930;2022-11-20T22:13:52;59.60;;;34.40;;
59689;SDS011;45557;50.298;18.930;2022-11-20T22:19:59;61.20;;;37.70;;
59689;SDS011;45557;50.298;18.930;2022-11-20T22:25:29;67.70;;;39.40;;
59689;SDS011;45557;50.298;18.930;2022-11-20T22:31:09;67.90;;;41.90;;
59689;SDS011;45557;50.298;18.930;2022-11-20T22:36:54;68.90;;;40.60;;
59689;SDS011;45557;50.298;18.930;2022-11-20T22:42:57;71.00;;;39.80;;
59689;SDS011;45557;50.298;18.930;2022-11-20T22:49:03;71.80;;;43.50;;
59689;SDS011;45557;50.298;18.930;2022-11-20T22:54:58;74.10;;;45.50;;
59689;SDS011;45557;50.298;18.930;2022-11-20T23:01:31;72.70;;;43.60;;
59689;SDS011;45557;50.298;18.930;2022-11-20T23:08:09;61.50;;;36.50;;
59689;SDS011;45557;50.298;18.930;2022-11-20T23:14:52;61.30;;;35.20;;
59689;SDS011;45557;50.298;18.930;2022-11-20T23:21:14;72.50;;;41.70;;
59689;SDS011;45557;50.298;18.930;2022-11-20T23:27:35;62.00;;;37.60;;
59689;SDS011;45557;50.298;18.930;2022-11-20T23:34:00;67.80;;;39.90;;
59689;SDS011;45557;50.298;18.930;2022-11-20T23:40:22;70.60;;;40.70;;
59689;SDS011;45557;50.298;18.930;2022-11-20T23:47:02;75.10;;;41.80;;
59689;SDS011;45557;50.298;18.930;2022-11-20T23:53:44;61.30;;;38.50;;
